createdAt,value
2023-03-02T00:00:25.063Z,50.908154
2023-03-02T00:01:25.056Z,50.908092
2023-03-02T00:02:25.192Z,50.908146
2023-03-02T00:03:25.081Z,50.908115
2023-03-02T00:04:25.100Z,50.908134
2023-03-02T00:05:25.043Z,50.908176
2023-03-02T00:06:25.023Z,50.908184
2023-03-02T00:07:25.021Z,50.908173
2023-03-02T00:08:25.006Z,50.908154
2023-03-02T00:09:25.025Z,50.908169
2023-03-02T00:10:24.991Z,50.908184
2023-03-02T00:11:24.988Z,50.908119
2023-03-02T00:12:25.977Z,50.908123
2023-03-02T00:13:24.975Z,50.908150
2023-03-02T00:14:25.037Z,50.908127
2023-03-02T00:15:24.960Z,50.908154
2023-03-02T00:16:25.015Z,50.908176
2023-03-02T00:17:24.950Z,50.908146
2023-03-02T00:18:24.941Z,50.908161
2023-03-02T00:19:24.937Z,50.908108
2023-03-02T00:20:24.952Z,50.908165
2023-03-02T00:21:24.921Z,50.908157
2023-03-02T00:22:24.915Z,50.908154
2023-03-02T00:23:24.909Z,50.908138
2023-03-02T00:24:24.898Z,50.908131
2023-03-02T00:25:24.908Z,50.908115
2023-03-02T00:26:24.877Z,50.908066
2023-03-02T00:27:24.873Z,50.908119
2023-03-02T00:28:24.865Z,50.908115
2023-03-02T00:29:24.851Z,50.908134
2023-03-02T00:30:25.876Z,50.908119
2023-03-02T00:31:24.888Z,50.908108
2023-03-02T00:32:24.905Z,50.908127
2023-03-02T00:33:24.825Z,50.908108
2023-03-02T00:34:24.828Z,50.908115
2023-03-02T00:35:24.860Z,50.908169
2023-03-02T00:36:24.800Z,50.908142
2023-03-02T00:37:24.796Z,50.908173
2023-03-02T00:38:24.791Z,50.908119
2023-03-02T00:39:24.783Z,50.908165
2023-03-02T00:40:24.798Z,50.908146
2023-03-02T00:41:24.762Z,50.908157
2023-03-02T00:42:24.755Z,50.908146
2023-03-02T00:43:24.746Z,50.908115
2023-03-02T00:44:24.744Z,50.908123
2023-03-02T00:45:24.763Z,50.908154
2023-03-02T00:46:24.778Z,50.908150
2023-03-02T00:47:24.723Z,50.908142
2023-03-02T00:48:24.728Z,50.908096
2023-03-02T00:49:24.698Z,50.908134
2023-03-02T00:50:24.721Z,50.908161
2023-03-02T00:51:24.692Z,50.908119
2023-03-02T00:52:24.697Z,50.908092
2023-03-02T00:53:24.690Z,50.908073
2023-03-02T00:54:24.665Z,50.908100
2023-03-02T00:55:24.681Z,50.908154
2023-03-02T00:56:24.661Z,50.908176
2023-03-02T00:57:24.637Z,50.908203
2023-03-02T00:58:24.635Z,50.908112
2023-03-02T00:59:24.620Z,50.908005
2023-03-02T01:00:24.647Z,50.907795
2023-03-02T01:01:24.614Z,50.907520
2023-03-02T01:02:24.686Z,50.907642
2023-03-02T01:03:24.699Z,50.907894
2023-03-02T01:04:24.603Z,50.907932
2023-03-02T01:05:24.603Z,50.907932
2023-03-02T01:06:24.585Z,50.908134
2023-03-02T01:07:24.563Z,50.908146
2023-03-02T01:08:24.562Z,50.908161
2023-03-02T01:09:24.555Z,50.908127
2023-03-02T01:10:24.572Z,50.908131
2023-03-02T01:11:24.544Z,50.908108
2023-03-02T01:12:24.533Z,50.908035
2023-03-02T01:13:24.527Z,50.908073
2023-03-02T01:14:24.530Z,50.908073
2023-03-02T01:15:24.535Z,50.908127
2023-03-02T01:16:24.582Z,50.907955
2023-03-02T01:17:24.475Z,50.907978
2023-03-02T01:18:25.487Z,50.908089
2023-03-02T01:19:24.486Z,50.908142
2023-03-02T01:20:24.500Z,50.908134
2023-03-02T01:21:24.462Z,50.908012
2023-03-02T01:22:24.448Z,50.908089
2023-03-02T01:23:24.450Z,50.908127
2023-03-02T01:24:24.447Z,50.908161
2023-03-02T01:25:24.459Z,50.908165
2023-03-02T01:26:24.435Z,50.908154
2023-03-02T01:27:24.423Z,50.908154
2023-03-02T01:28:24.415Z,50.908119
2023-03-02T01:29:24.405Z,50.908127
2023-03-02T01:30:24.428Z,50.908157
2023-03-02T01:31:24.427Z,50.908157
2023-03-02T01:32:24.410Z,50.908169
2023-03-02T01:33:24.374Z,50.908154
2023-03-02T01:34:24.371Z,50.908157
2023-03-02T01:35:24.442Z,50.908100
2023-03-02T01:36:24.350Z,50.908134
2023-03-02T01:37:24.345Z,50.908142
2023-03-02T01:38:24.344Z,50.908218
2023-03-02T01:39:24.345Z,50.908157
2023-03-02T01:40:24.348Z,50.908131
2023-03-02T01:41:24.316Z,50.908131
2023-03-02T01:42:24.304Z,50.908108
2023-03-02T01:43:24.319Z,50.908150
2023-03-02T01:44:24.295Z,50.908146
2023-03-02T01:45:24.366Z,50.908142
2023-03-02T01:46:24.284Z,50.908051
2023-03-02T01:47:24.293Z,50.908001
2023-03-02T01:48:24.263Z,50.908066
2023-03-02T01:49:24.265Z,50.908115
2023-03-02T01:50:24.279Z,50.908123
2023-03-02T01:51:24.236Z,50.908115
2023-03-02T01:52:24.243Z,50.908123
2023-03-02T01:53:24.226Z,50.908134
2023-03-02T01:54:24.214Z,50.908184
2023-03-02T01:55:24.248Z,50.908195
2023-03-02T01:56:24.208Z,50.908173
2023-03-02T01:57:24.196Z,50.908142
2023-03-02T01:58:24.188Z,50.908138
2023-03-02T01:59:24.179Z,50.908104
2023-03-02T02:00:24.200Z,50.908154
2023-03-02T02:01:24.271Z,50.908157
2023-03-02T02:02:24.160Z,50.908108
2023-03-02T02:03:24.160Z,50.908161
2023-03-02T02:04:24.204Z,50.908123
2023-03-02T02:05:24.166Z,50.908089
2023-03-02T02:06:24.142Z,50.908146
2023-03-02T02:07:24.119Z,50.908077
2023-03-02T02:08:24.111Z,50.908089
2023-03-02T02:09:24.115Z,50.908089
2023-03-02T02:10:24.122Z,50.908104
2023-03-02T02:11:24.093Z,50.908085
2023-03-02T02:12:24.082Z,50.908043
2023-03-02T02:13:24.074Z,50.908092
2023-03-02T02:14:24.071Z,50.908115
2023-03-02T02:15:24.090Z,50.908108
2023-03-02T02:16:24.067Z,50.908070
2023-03-02T02:17:24.035Z,50.908070
2023-03-02T02:18:24.029Z,50.908066
2023-03-02T02:19:24.033Z,50.908062
2023-03-02T02:20:24.080Z,50.908081
2023-03-02T02:21:24.010Z,50.908119
2023-03-02T02:22:24.003Z,50.908100
2023-03-02T02:23:23.995Z,50.908081
2023-03-02T02:24:23.988Z,50.908134
2023-03-02T02:25:24.025Z,50.908119
2023-03-02T02:26:23.974Z,50.908119
2023-03-02T02:27:23.971Z,50.908092
2023-03-02T02:28:23.957Z,50.908123
2023-03-02T02:29:23.950Z,50.908138
2023-03-02T02:30:23.949Z,50.908142
2023-03-02T02:31:23.989Z,50.908161
2023-03-02T02:32:24.026Z,50.908134
2023-03-02T02:33:23.931Z,50.908180
2023-03-02T02:34:23.914Z,50.908199
2023-03-02T02:35:23.945Z,50.908169
2023-03-02T02:36:23.921Z,50.908154
2023-03-02T02:37:23.886Z,50.908150
2023-03-02T02:38:23.882Z,50.908154
2023-03-02T02:39:23.876Z,50.908146
2023-03-02T02:40:23.878Z,50.908211
2023-03-02T02:41:23.887Z,50.908165
2023-03-02T02:42:23.857Z,50.908165
2023-03-02T02:43:23.848Z,50.908146
2023-03-02T02:44:23.845Z,50.908131
2023-03-02T02:45:23.841Z,50.908138
2023-03-02T02:46:23.853Z,50.908180
2023-03-02T02:47:23.818Z,50.908176
2023-03-02T02:48:23.807Z,50.908134
2023-03-02T02:49:23.804Z,50.908157
2023-03-02T02:50:23.787Z,50.908131
2023-03-02T02:51:23.813Z,50.908089
2023-03-02T02:52:23.776Z,50.908154
2023-03-02T02:53:23.771Z,50.908165
2023-03-02T02:54:23.762Z,50.908165
2023-03-02T02:55:23.783Z,50.908184
2023-03-02T02:56:23.780Z,50.908157
2023-03-02T02:57:23.735Z,50.908138
2023-03-02T02:58:23.729Z,50.908203
2023-03-02T02:59:23.732Z,50.908165
2023-03-02T03:00:23.716Z,50.908161
2023-03-02T03:01:23.783Z,50.908081
2023-03-02T03:02:23.696Z,50.908142
2023-03-02T03:03:23.698Z,50.908169
2023-03-02T03:04:23.796Z,50.908165
2023-03-02T03:05:23.676Z,50.908138
2023-03-02T03:06:23.704Z,50.908142
2023-03-02T03:07:23.667Z,50.908161
2023-03-02T03:08:23.688Z,50.908146
2023-03-02T03:09:23.693Z,50.908150
2023-03-02T03:10:23.646Z,50.908142
2023-03-02T03:11:23.684Z,50.908119
2023-03-02T03:12:23.647Z,50.908131
2023-03-02T03:13:23.616Z,50.908169
2023-03-02T03:14:23.615Z,50.908150
2023-03-02T03:15:23.608Z,50.908150
2023-03-02T03:16:23.664Z,50.908119
2023-03-02T03:17:23.597Z,50.908131
2023-03-02T03:18:23.581Z,50.908165
2023-03-02T03:19:23.574Z,50.908150
2023-03-02T03:20:23.561Z,50.908123
2023-03-02T03:21:23.585Z,50.908176
2023-03-02T03:22:23.548Z,50.908131
2023-03-02T03:23:23.537Z,50.908066
2023-03-02T03:24:23.541Z,50.908058
2023-03-02T03:25:23.524Z,50.908108
2023-03-02T03:26:23.542Z,50.908161
2023-03-02T03:27:23.504Z,50.908134
2023-03-02T03:28:23.499Z,50.908127
2023-03-02T03:29:23.490Z,50.908215
2023-03-02T03:30:23.493Z,50.908058
2023-03-02T03:31:23.554Z,50.908100
2023-03-02T03:32:23.512Z,50.908115
2023-03-02T03:33:23.460Z,50.908058
2023-03-02T03:34:23.460Z,50.908142
2023-03-02T03:35:23.465Z,50.908131
2023-03-02T03:36:23.486Z,50.908073
2023-03-02T03:37:23.464Z,50.908138
2023-03-02T03:38:23.436Z,50.908180
2023-03-02T03:39:23.421Z,50.908051
2023-03-02T03:40:23.406Z,50.908062
2023-03-02T03:41:23.585Z,50.908127
2023-03-02T03:42:23.401Z,50.908115
2023-03-02T03:43:23.398Z,50.908199
2023-03-02T03:44:23.387Z,50.908131
2023-03-02T03:45:23.375Z,50.908127
2023-03-02T03:46:23.414Z,50.908142
2023-03-02T03:47:23.385Z,50.908165
2023-03-02T03:48:23.355Z,50.908119
2023-03-02T03:49:23.349Z,50.908195
2023-03-02T03:50:23.338Z,50.908230
2023-03-02T03:51:23.343Z,50.908268
2023-03-02T03:52:23.351Z,50.908142
2023-03-02T03:53:23.318Z,50.908066
2023-03-02T03:54:23.312Z,50.907986
2023-03-02T03:55:23.298Z,50.908115
2023-03-02T03:56:23.293Z,50.908146
2023-03-02T03:57:23.313Z,50.908123
2023-03-02T03:58:23.307Z,50.908131
2023-03-02T03:59:23.282Z,50.908169
2023-03-02T04:00:23.261Z,50.908165
2023-03-02T04:01:23.280Z,50.908146
2023-03-02T04:02:23.312Z,50.908115
2023-03-02T04:03:23.234Z,50.907997
2023-03-02T04:04:23.229Z,50.908035
2023-03-02T04:05:23.227Z,50.908085
2023-03-02T04:06:23.220Z,50.908146
2023-03-02T04:07:23.232Z,50.908199
2023-03-02T04:08:23.202Z,50.908165
2023-03-02T04:09:23.215Z,50.908169
2023-03-02T04:10:23.187Z,50.908180
2023-03-02T04:11:23.182Z,50.908154
2023-03-02T04:12:23.198Z,50.908161
2023-03-02T04:13:23.162Z,50.908119
2023-03-02T04:14:23.165Z,50.908115
2023-03-02T04:15:24.361Z,50.908051
2023-03-02T04:16:23.150Z,50.908234
2023-03-02T04:17:23.171Z,50.908241
2023-03-02T04:18:23.123Z,50.908207
2023-03-02T04:19:23.119Z,50.908325
2023-03-02T04:20:23.130Z,50.908276
2023-03-02T04:21:23.109Z,50.908058
2023-03-02T04:22:23.126Z,50.908047
2023-03-02T04:23:23.095Z,50.908047
2023-03-02T04:24:23.102Z,50.908047
2023-03-02T04:25:23.081Z,50.908195
2023-03-02T04:26:23.075Z,50.908306
2023-03-02T04:27:23.093Z,50.908306
2023-03-02T04:28:23.067Z,50.908195
2023-03-02T04:29:23.055Z,50.908195
2023-03-02T04:30:23.047Z,50.908173
2023-03-02T04:31:23.099Z,50.908176
2023-03-02T04:32:23.148Z,50.908283
2023-03-02T04:33:23.030Z,50.908100
2023-03-02T04:34:23.020Z,50.908073
2023-03-02T04:35:23.054Z,50.908058
2023-03-02T04:36:23.004Z,50.907948
2023-03-02T04:37:23.017Z,50.908039
2023-03-02T04:38:22.993Z,50.907951
2023-03-02T04:39:22.985Z,50.908051
2023-03-02T04:40:22.977Z,50.908089
2023-03-02T04:41:22.963Z,50.908108
2023-03-02T04:42:22.988Z,50.908119
2023-03-02T04:43:22.969Z,50.908218
2023-03-02T04:44:22.952Z,50.908096
2023-03-02T04:45:22.943Z,50.907959
2023-03-02T04:46:23.065Z,50.908005
2023-03-02T04:47:22.953Z,50.908131
2023-03-02T04:48:22.928Z,50.908173
2023-03-02T04:49:22.910Z,50.908020
2023-03-02T04:50:22.904Z,50.908051
2023-03-02T04:51:22.895Z,50.908012
2023-03-02T04:52:22.920Z,50.908039
2023-03-02T04:53:22.887Z,50.908024
2023-03-02T04:54:22.880Z,50.908127
2023-03-02T04:55:22.876Z,50.908131
2023-03-02T04:56:22.866Z,50.908131
2023-03-02T04:57:22.883Z,50.908089
2023-03-02T04:58:22.844Z,50.908092
2023-03-02T04:59:22.836Z,50.908092
2023-03-02T05:00:22.835Z,50.908112
2023-03-02T05:01:22.821Z,50.908051
2023-03-02T05:02:22.854Z,50.908085
2023-03-02T05:03:22.812Z,50.908104
2023-03-02T05:04:22.880Z,50.908051
2023-03-02T05:05:22.797Z,50.908081
2023-03-02T05:06:22.784Z,50.908077
2023-03-02T05:07:22.813Z,50.908081
2023-03-02T05:08:22.772Z,50.908096
2023-03-02T05:09:22.760Z,50.908073
2023-03-02T05:10:22.750Z,50.908104
2023-03-02T05:11:22.757Z,50.908100
2023-03-02T05:12:22.764Z,50.908047
2023-03-02T05:13:22.743Z,50.908085
2023-03-02T05:14:22.723Z,50.908089
2023-03-02T05:15:22.719Z,50.908054
2023-03-02T05:16:22.748Z,50.908028
2023-03-02T05:17:22.733Z,50.908077
2023-03-02T05:18:22.719Z,50.908096
2023-03-02T05:19:22.688Z,50.908108
2023-03-02T05:20:22.679Z,50.908100
2023-03-02T05:21:22.674Z,50.908112
2023-03-02T05:22:22.689Z,50.908108
2023-03-02T05:23:24.913Z,50.908096
2023-03-02T05:24:22.652Z,50.908089
2023-03-02T05:25:22.646Z,50.908085
2023-03-02T05:26:22.637Z,50.908077
2023-03-02T05:27:22.658Z,50.908077
2023-03-02T05:28:22.630Z,50.908073
2023-03-02T05:29:22.613Z,50.908073
2023-03-02T05:30:22.612Z,50.908066
2023-03-02T05:31:22.644Z,50.908081
2023-03-02T05:32:22.667Z,50.908054
2023-03-02T05:33:22.604Z,50.908115
2023-03-02T05:34:22.576Z,50.908054
2023-03-02T05:35:22.695Z,50.908051
2023-03-02T05:36:23.390Z,50.908092
2023-03-02T05:37:23.588Z,50.908119
2023-03-02T05:38:22.556Z,50.908096
2023-03-02T05:39:22.610Z,50.908066
2023-03-02T05:40:22.538Z,50.908096
2023-03-02T05:41:22.531Z,50.908062
2023-03-02T05:42:22.635Z,50.908104
2023-03-02T05:43:22.514Z,50.908112
2023-03-02T05:44:22.504Z,50.908119
2023-03-02T05:45:22.513Z,50.908131
2023-03-02T05:46:22.505Z,50.908104
2023-03-02T05:47:22.512Z,50.908058
2023-03-02T05:48:22.482Z,50.908127
2023-03-02T05:49:22.468Z,50.908119
2023-03-02T05:50:22.461Z,50.908100
2023-03-02T05:51:22.474Z,50.908131
2023-03-02T05:52:22.463Z,50.908066
2023-03-02T05:53:22.430Z,50.908115
2023-03-02T05:54:22.428Z,50.908131
2023-03-02T05:55:22.422Z,50.908127
2023-03-02T05:56:22.408Z,50.908123
2023-03-02T05:57:22.425Z,50.908123
2023-03-02T05:58:22.393Z,50.908112
2023-03-02T05:59:22.393Z,50.908115
2023-03-02T06:00:22.397Z,50.908108
2023-03-02T06:01:22.376Z,50.908092
2023-03-02T06:02:22.445Z,50.908112
2023-03-02T06:03:22.409Z,50.908070
2023-03-02T06:04:22.367Z,50.908092
2023-03-02T06:05:22.352Z,50.908134
2023-03-02T06:06:22.338Z,50.908112
2023-03-02T06:07:22.365Z,50.908104
2023-03-02T06:08:22.315Z,50.908119
2023-03-02T06:09:22.327Z,50.908066
2023-03-02T06:10:22.307Z,50.908100
2023-03-02T06:11:22.311Z,50.908070
2023-03-02T06:12:22.324Z,50.908092
2023-03-02T06:13:22.284Z,50.908115
2023-03-02T06:14:22.277Z,50.908112
2023-03-02T06:15:22.275Z,50.908115
2023-03-02T06:16:22.280Z,50.908157
2023-03-02T06:17:22.254Z,50.908157
2023-03-02T06:18:22.274Z,50.908157
2023-03-02T06:19:22.241Z,50.908184
2023-03-02T06:20:22.224Z,50.908154
2023-03-02T06:21:22.221Z,50.908115
2023-03-02T06:22:22.214Z,50.908108
2023-03-02T06:23:22.233Z,50.908138
2023-03-02T06:24:22.196Z,50.908104
2023-03-02T06:25:22.186Z,50.908142
2023-03-02T06:26:22.202Z,50.908131
2023-03-02T06:27:22.177Z,50.908085
2023-03-02T06:28:22.207Z,50.908104
2023-03-02T06:29:22.166Z,50.908104
2023-03-02T06:30:22.168Z,50.908108
2023-03-02T06:31:22.282Z,50.908119
2023-03-02T06:32:22.283Z,50.908108
2023-03-02T06:33:22.174Z,50.908154
2023-03-02T06:34:22.148Z,50.908112
2023-03-02T06:35:22.239Z,50.908115
2023-03-02T06:36:22.172Z,50.908100
2023-03-02T06:37:22.107Z,50.908089
2023-03-02T06:38:22.123Z,50.908089
2023-03-02T06:39:22.116Z,50.908073
2023-03-02T06:40:22.098Z,50.908119
2023-03-02T06:41:22.090Z,50.908005
2023-03-02T06:42:22.068Z,50.907967
2023-03-02T06:43:22.124Z,50.908092
2023-03-02T06:44:22.057Z,50.908031
2023-03-02T06:45:22.055Z,50.908108
2023-03-02T06:46:22.141Z,50.908081
2023-03-02T06:47:22.033Z,50.908070
2023-03-02T06:48:22.054Z,50.908119
2023-03-02T06:49:22.015Z,50.908070
2023-03-02T06:50:22.006Z,50.908062
2023-03-02T06:51:22.076Z,50.908085
2023-03-02T06:52:21.990Z,50.908092
2023-03-02T06:53:22.008Z,50.908108
2023-03-02T06:54:24.001Z,50.908100
2023-03-02T06:55:22.990Z,50.908157
2023-03-02T06:56:21.965Z,50.908176
2023-03-02T06:57:21.946Z,50.908142
2023-03-02T06:58:21.967Z,50.908131
2023-03-02T06:59:21.956Z,50.908100
2023-03-02T07:00:22.177Z,50.908092
2023-03-02T07:01:21.965Z,50.908062
2023-03-02T07:02:21.912Z,50.908092
2023-03-02T07:03:21.970Z,50.908092
2023-03-02T07:04:21.914Z,50.908058
2023-03-02T07:05:21.888Z,50.908169
2023-03-02T07:06:21.878Z,50.908138
2023-03-02T07:07:21.863Z,50.908169
2023-03-02T07:08:21.893Z,50.908127
2023-03-02T07:09:21.853Z,50.908100
2023-03-02T07:10:21.881Z,50.908035
2023-03-02T07:11:21.911Z,50.908058
2023-03-02T07:12:21.829Z,50.908047
2023-03-02T07:13:21.870Z,50.908031
2023-03-02T07:14:21.809Z,50.908134
2023-03-02T07:15:21.801Z,50.908096
2023-03-02T07:16:21.813Z,50.908142
2023-03-02T07:17:21.781Z,50.908138
2023-03-02T07:18:21.804Z,50.908066
2023-03-02T07:19:21.770Z,50.908150
2023-03-02T07:20:21.800Z,50.908157
2023-03-02T07:21:21.751Z,50.908150
2023-03-02T07:22:21.741Z,50.908218
2023-03-02T07:23:21.760Z,50.908184
2023-03-02T07:24:21.725Z,50.908085
2023-03-02T07:25:21.722Z,50.908184
2023-03-02T07:26:21.709Z,50.908249
2023-03-02T07:27:21.704Z,50.908180
2023-03-02T07:28:21.722Z,50.908199
2023-03-02T07:29:21.690Z,50.908176
2023-03-02T07:30:21.681Z,50.908115
2023-03-02T07:31:21.754Z,50.908180
2023-03-02T07:32:21.717Z,50.908131
2023-03-02T07:33:21.675Z,50.908207
2023-03-02T07:34:21.651Z,50.908119
2023-03-02T07:35:21.679Z,50.908043
2023-03-02T07:36:21.629Z,50.908142
2023-03-02T07:37:21.624Z,50.908096
2023-03-02T07:38:21.637Z,50.908092
2023-03-02T07:39:21.607Z,50.908092
2023-03-02T07:40:21.594Z,50.908070
2023-03-02T07:41:21.586Z,50.908134
2023-03-02T07:42:21.571Z,50.908096
2023-03-02T07:43:22.602Z,50.908131
2023-03-02T07:44:21.567Z,50.908138
2023-03-02T07:45:21.575Z,50.908108
2023-03-02T07:46:21.596Z,50.908092
2023-03-02T07:47:21.546Z,50.908077
2023-03-02T07:48:21.556Z,50.908096
2023-03-02T07:49:21.522Z,50.908173
2023-03-02T07:50:21.517Z,50.908138
2023-03-02T07:51:21.513Z,50.908100
2023-03-02T07:52:21.520Z,50.907982
2023-03-02T07:53:21.516Z,50.908035
2023-03-02T07:54:21.479Z,50.908062
2023-03-02T07:55:21.477Z,50.908260
2023-03-02T07:56:21.467Z,50.908195
2023-03-02T07:57:21.471Z,50.908154
2023-03-02T07:58:21.482Z,50.908134
2023-03-02T07:59:21.442Z,50.908146
2023-03-02T08:00:21.434Z,50.908123
2023-03-02T08:01:21.510Z,50.908150
2023-03-02T08:02:21.440Z,50.908134
2023-03-02T08:03:21.429Z,50.908157
2023-03-02T08:04:21.397Z,50.908161
2023-03-02T08:05:21.400Z,50.908138
2023-03-02T08:06:21.386Z,50.908138
2023-03-02T08:07:21.383Z,50.908108
2023-03-02T08:08:21.432Z,50.908142
2023-03-02T08:09:21.376Z,50.908184
2023-03-02T08:10:21.360Z,50.908115
2023-03-02T08:11:21.349Z,50.908134
2023-03-02T08:12:21.343Z,50.908146
2023-03-02T08:13:21.364Z,50.908134
2023-03-02T08:14:21.324Z,50.908157
2023-03-02T08:15:21.311Z,50.908161
2023-03-02T08:16:21.343Z,50.908108
2023-03-02T08:17:21.302Z,50.908134
2023-03-02T08:18:21.319Z,50.908138
2023-03-02T08:19:21.298Z,50.908066
2023-03-02T08:20:21.290Z,50.908012
2023-03-02T08:21:21.282Z,50.908066
2023-03-02T08:22:21.263Z,50.908085
2023-03-02T08:23:21.324Z,50.908123
2023-03-02T08:24:21.248Z,50.908112
2023-03-02T08:25:21.245Z,50.908112
2023-03-02T08:26:21.238Z,50.908066
2023-03-02T08:27:21.224Z,50.908085
2023-03-02T08:28:21.236Z,50.908142
2023-03-02T08:29:21.212Z,50.908237
2023-03-02T08:30:21.199Z,50.908157
2023-03-02T08:31:21.230Z,50.908146
2023-03-02T08:32:21.227Z,50.908146
2023-03-02T08:33:21.205Z,50.908115
2023-03-02T08:34:21.186Z,50.908104
2023-03-02T08:35:21.269Z,50.908123
2023-03-02T08:36:21.180Z,50.908108
2023-03-02T08:37:21.151Z,50.908089
2023-03-02T08:38:21.174Z,50.908104
2023-03-02T08:39:21.145Z,50.908108
2023-03-02T08:40:21.120Z,50.908150
2023-03-02T08:41:21.129Z,50.908154
2023-03-02T08:42:21.105Z,50.908115
2023-03-02T08:43:21.131Z,50.908127
2023-03-02T08:44:21.092Z,50.908142
2023-03-02T08:45:21.083Z,50.908119
2023-03-02T08:46:21.077Z,50.908138
2023-03-02T08:47:21.088Z,50.908134
2023-03-02T08:48:21.173Z,50.908127
2023-03-02T08:49:21.059Z,50.908138
2023-03-02T08:50:21.058Z,50.908134
2023-03-02T08:51:21.038Z,50.908134
2023-03-02T08:52:21.029Z,50.908108
2023-03-02T08:53:21.055Z,50.908134
2023-03-02T08:54:21.015Z,50.908115
2023-03-02T08:55:21.059Z,50.908142
2023-03-02T08:56:21.002Z,50.908131
2023-03-02T08:57:21.403Z,50.908119
2023-03-02T08:58:22.012Z,50.908112
2023-03-02T08:59:20.968Z,50.908115
2023-03-02T09:00:20.958Z,50.908062
2023-03-02T09:01:21.009Z,50.908108
2023-03-02T09:02:20.959Z,50.908150
2023-03-02T09:03:20.971Z,50.908127
2023-03-02T09:04:20.977Z,50.908180
2023-03-02T09:05:20.931Z,50.908131
2023-03-02T09:06:20.936Z,50.908123
2023-03-02T09:07:20.947Z,50.908104
2023-03-02T09:08:20.937Z,50.908134
2023-03-02T09:09:20.883Z,50.908150
2023-03-02T09:10:20.895Z,50.908104
2023-03-02T09:11:20.869Z,50.908100
2023-03-02T09:12:20.861Z,50.908123
2023-03-02T09:13:20.884Z,50.908134
2023-03-02T09:14:20.843Z,50.908169
2023-03-02T09:15:20.839Z,50.908123
2023-03-02T09:16:20.847Z,50.908096
2023-03-02T09:17:20.826Z,50.908115
2023-03-02T09:18:20.849Z,50.908138
2023-03-02T09:19:20.816Z,50.908161
2023-03-02T09:20:20.799Z,50.908119
2023-03-02T09:21:20.813Z,50.908123
2023-03-02T09:22:20.796Z,50.908131
2023-03-02T09:23:20.815Z,50.908150
2023-03-02T09:24:20.798Z,50.908157
2023-03-02T09:25:20.757Z,50.908146
2023-03-02T09:26:20.747Z,50.908234
2023-03-02T09:27:20.750Z,50.908165
2023-03-02T09:28:20.733Z,50.908188
2023-03-02T09:29:20.755Z,50.908119
2023-03-02T09:30:20.723Z,50.908134
2023-03-02T09:31:20.720Z,50.908150
2023-03-02T09:32:20.797Z,50.908134
2023-03-02T09:33:20.689Z,50.908096
2023-03-02T09:34:21.715Z,50.908100
2023-03-02T09:35:20.690Z,50.908081
2023-03-02T09:36:20.671Z,50.908054
2023-03-02T09:37:20.673Z,50.908089
2023-03-02T09:38:20.661Z,50.908108
2023-03-02T09:39:20.679Z,50.908112
2023-03-02T09:40:20.649Z,50.908085
2023-03-02T09:41:20.676Z,50.908161
2023-03-02T09:42:20.620Z,50.908127
2023-03-02T09:43:20.615Z,50.908131
2023-03-02T09:44:20.643Z,50.908176
2023-03-02T09:45:20.597Z,50.908127
2023-03-02T09:46:20.702Z,50.908100
2023-03-02T09:47:34.606Z,50.908150
2023-03-02T09:48:22.581Z,50.908169
2023-03-02T09:49:20.598Z,50.908131
2023-03-02T09:50:20.568Z,50.908142
2023-03-02T09:51:20.556Z,50.908123
2023-03-02T09:52:20.555Z,50.908134
2023-03-02T09:53:20.542Z,50.908146
2023-03-02T09:54:20.921Z,50.908100
2023-03-02T09:55:21.525Z,50.908131
2023-03-02T09:56:20.511Z,50.908112
2023-03-02T09:57:20.509Z,50.908146
2023-03-02T09:58:20.515Z,50.908161
2023-03-02T09:59:20.514Z,50.908211
2023-03-02T10:00:20.658Z,50.908241
2023-03-02T10:01:20.476Z,50.908249
2023-03-02T10:02:20.467Z,50.908123
2023-03-02T10:03:20.532Z,50.908131
2023-03-02T10:04:20.538Z,50.908119
2023-03-02T10:05:20.453Z,50.908100
2023-03-02T10:06:20.456Z,50.908089
2023-03-02T10:07:20.431Z,50.908104
2023-03-02T10:08:20.426Z,50.908134
2023-03-02T10:09:20.436Z,50.908089
2023-03-02T10:10:20.408Z,50.908150
2023-03-02T10:11:20.439Z,50.908115
2023-03-02T10:12:20.389Z,50.908104
2023-03-02T10:13:20.452Z,50.908051
2023-03-02T10:14:20.464Z,50.908066
2023-03-02T10:15:20.364Z,50.908039
2023-03-02T10:16:20.412Z,50.908096
2023-03-02T10:17:20.341Z,50.908089
2023-03-02T10:18:20.374Z,50.908031
2023-03-02T10:19:21.363Z,50.908043
2023-03-02T10:20:20.334Z,50.908020
2023-03-02T10:21:20.313Z,50.908100
2023-03-02T10:22:20.304Z,50.908100
2023-03-02T10:23:20.306Z,50.908134
2023-03-02T10:24:20.299Z,50.908115
2023-03-02T10:25:20.311Z,50.908127
2023-03-02T10:26:20.268Z,50.908100
2023-03-02T10:27:20.274Z,50.908115
2023-03-02T10:28:20.278Z,50.908127
2023-03-02T10:29:20.248Z,50.908115
2023-03-02T10:30:20.266Z,50.908150
2023-03-02T10:31:20.287Z,50.908142
2023-03-02T10:32:20.343Z,50.908104
2023-03-02T10:33:20.213Z,50.908123
2023-03-02T10:34:20.207Z,50.908119
2023-03-02T10:35:20.246Z,50.908131
2023-03-02T10:36:20.822Z,50.908146
2023-03-02T10:37:21.193Z,50.908123
2023-03-02T10:38:20.195Z,50.908138
2023-03-02T10:39:20.181Z,50.908131
2023-03-02T10:40:20.193Z,50.908104
2023-03-02T10:41:20.161Z,50.908119
2023-03-02T10:42:20.195Z,50.908108
2023-03-02T10:43:20.138Z,50.908085
2023-03-02T10:44:20.123Z,50.908112
2023-03-02T10:45:20.140Z,50.908115
2023-03-02T10:46:20.140Z,50.908123
2023-03-02T10:47:20.336Z,50.908096
2023-03-02T10:48:21.096Z,50.908173
2023-03-02T10:49:21.061Z,50.908104
2023-03-02T10:50:21.108Z,50.908062
2023-03-02T10:51:20.077Z,50.908104
2023-03-02T10:52:20.073Z,50.908089
2023-03-02T10:53:20.057Z,50.908070
2023-03-02T10:54:20.045Z,50.908131
2023-03-02T10:55:20.082Z,50.908161
2023-03-02T10:56:20.044Z,50.908176
2023-03-02T10:57:20.034Z,50.908127
2023-03-02T10:58:20.033Z,50.908073
2023-03-02T10:59:21.009Z,50.908100
2023-03-02T11:00:20.039Z,50.908112
2023-03-02T11:01:20.067Z,50.908104
2023-03-02T11:02:19.987Z,50.908131
2023-03-02T11:03:19.989Z,50.908180
2023-03-02T11:04:20.028Z,50.908138
2023-03-02T11:05:19.988Z,50.908138
2023-03-02T11:06:19.968Z,50.908123
2023-03-02T11:07:19.967Z,50.908150
2023-03-02T11:08:19.943Z,50.908184
2023-03-02T11:09:19.934Z,50.908169
2023-03-02T11:10:19.956Z,50.908089
2023-03-02T11:11:19.958Z,50.908115
2023-03-02T11:12:19.923Z,50.908092
2023-03-02T11:13:19.903Z,50.908100
2023-03-02T11:14:19.894Z,50.908104
2023-03-02T11:15:19.920Z,50.908092
2023-03-02T11:16:20.036Z,50.908119
2023-03-02T11:17:19.883Z,50.908100
2023-03-02T11:18:19.873Z,50.908108
2023-03-02T11:19:19.863Z,50.908085
2023-03-02T11:20:19.854Z,50.908127
2023-03-02T11:21:19.888Z,50.908115
2023-03-02T11:22:19.838Z,50.908085
2023-03-02T11:23:19.837Z,50.908119
2023-03-02T11:24:19.812Z,50.908112